Time;durP1;ratioP1;P1;durP2;ratioP2;P2;SDS_P1;SDS_P2;PMS_P1;PMS_P2;Temp;Humidity;BMP_temperature;BMP_pressure;BME280_temperature;BME280_humidity;BME280_pressure;Samples;Min_cycle;Max_cycle;Signal;HPM_P1;HPM_P2
2021/04/19 00:00:20;;;;;;;1.25;1.00;;;;;;;;;;5087583;28;20024;-76
2021/04/19 00:02:46;;;;;;;1.40;1.00;;;;;;;;;;5087374;28;20084;-77
2021/04/19 00:05:14;;;;;;;1.60;1.50;;;;;;;;;;5087619;28;20043;-77
2021/04/19 00:07:40;;;;;;;0.90;0.80;;;;;;;;;;5087228;28;20071;-77
2021/04/19 00:10:08;;;;;;;1.02;0.98;;;;;;;;;;5088078;28;20036;-77
2021/04/19 00:12:34;;;;;;;1.40;1.30;;;;;;;;;;5086606;28;20135;-77
2021/04/19 00:15:01;;;;;;;1.75;0.90;;;;;;;;;;5088438;28;20047;-77
2021/04/19 00:17:27;;;;;;;1.25;1.10;;;;;;;;;;5087699;28;20032;-77
2021/04/19 00:19:53;;;;;;;0.77;0.77;;;;;;;;;;5087695;28;20020;-77
2021/04/19 00:22:19;;;;;;;1.35;1.25;;;;;;;;;;5086464;28;20145;-76
2021/04/19 00:24:45;;;;;;;1.40;0.90;;;;;;;;;;5087320;28;20020;-77
2021/04/19 00:27:11;;;;;;;1.30;1.25;;;;;;;;;;5088210;28;20088;-77
2021/04/19 00:29:37;;;;;;;1.25;1.15;;;;;;;;;;5087425;28;20074;-77
2021/04/19 00:32:03;;;;;;;1.17;0.93;;;;;;;;;;5087403;28;20035;-77
2021/04/19 00:34:29;;;;;;;1.38;1.10;;;;;;;;;;5087232;28;20041;-77
2021/04/19 00:36:55;;;;;;;1.05;1.05;;;;;;;;;;5086834;28;20036;-77
2021/04/19 00:39:21;;;;;;;1.00;0.95;;;;;;;;;;5087032;28;20163;-76
2021/04/19 00:41:48;;;;;;;1.33;1.23;;;;;;;;;;5086975;28;20031;-77
2021/04/19 00:44:14;;;;;;;1.00;1.00;;;;;;;;;;5086977;28;20471;-76
2021/04/19 00:46:40;;;;;;;1.42;1.20;;;;;;;;;;5087211;28;20407;-77
2021/04/19 00:49:06;;;;;;;0.73;0.73;;;;;;;;;;5087438;28;20055;-77
2021/04/19 00:51:32;;;;;;;6.97;1.95;;;;;;;;;;5086211;28;20036;-77
2021/04/19 00:53:58;;;;;;;1.10;0.95;;;;;;;;;;5087696;28;20028;-77
2021/04/19 00:56:25;;;;;;;1.20;0.82;;;;;;;;;;5087528;28;20434;-77
2021/04/19 00:58:51;;;;;;;1.13;0.95;;;;;;;;;;5087621;28;20031;-77
2021/04/19 01:01:17;;;;;;;1.33;1.20;;;;;;;;;;5086452;28;20426;-77
2021/04/19 01:03:43;;;;;;;1.05;1.05;;;;;;;;;;5086812;28;20020;-76
2021/04/19 01:06:10;;;;;;;1.33;1.25;;;;;;;;;;5086165;28;20077;-77
2021/04/19 01:08:37;;;;;;;1.52;1.30;;;;;;;;;;5085840;28;20542;-76
2021/04/19 01:11:03;;;;;;;1.20;1.05;;;;;;;;;;5091051;28;20482;-77
2021/04/19 01:13:29;;;;;;;1.27;1.10;;;;;;;;;;5090093;28;20216;-76
2021/04/19 01:15:55;;;;;;;1.33;1.23;;;;;;;;;;5092199;28;20036;-76
2021/04/19 01:18:21;;;;;;;1.25;1.02;;;;;;;;;;5090714;28;20034;-76
2021/04/19 01:20:48;;;;;;;2.28;0.93;;;;;;;;;;5091083;28;20107;-77
2021/04/19 01:23:15;;;;;;;1.45;1.35;;;;;;;;;;5089729;28;20032;-77
2021/04/19 01:25:41;;;;;;;1.45;1.35;;;;;;;;;;5090827;28;20025;-77
2021/04/19 01:28:08;;;;;;;0.90;0.73;;;;;;;;;;5091042;28;20036;-77
2021/04/19 01:30:35;;;;;;;1.83;1.38;;;;;;;;;;5090395;28;20051;-77
2021/04/19 01:33:02;;;;;;;1.27;1.00;;;;;;;;;;5090562;28;20026;-77
2021/04/19 01:35:28;;;;;;;0.88;0.80;;;;;;;;;;5089860;28;20731;-77
2021/04/19 01:37:54;;;;;;;0.98;0.90;;;;;;;;;;5090301;28;20395;-77
2021/04/19 01:40:21;;;;;;;1.30;1.13;;;;;;;;;;5090113;28;20048;-76
2021/04/19 01:42:47;;;;;;;2.80;1.00;;;;;;;;;;5090249;28;20021;-76
2021/04/19 01:45:14;;;;;;;1.40;1.13;;;;;;;;;;5091501;28;20040;-76
2021/04/19 01:47:41;;;;;;;1.10;1.08;;;;;;;;;;5090638;28;20056;-77
2021/04/19 01:50:11;;;;;;;1.17;1.13;;;;;;;;;;5090902;28;20021;-77
2021/04/19 01:52:38;;;;;;;1.13;1.05;;;;;;;;;;5089442;28;20028;-77
2021/04/19 01:55:08;;;;;;;2.20;1.60;;;;;;;;;;5090983;28;20039;-77
2021/04/19 01:57:36;;;;;;;1.10;1.02;;;;;;;;;;5090518;28;20757;-77
2021/04/19 02:00:03;;;;;;;0.88;0.88;;;;;;;;;;5090669;28;20164;-76
2021/04/19 02:02:29;;;;;;;0.80;0.80;;;;;;;;;;5089080;28;20036;-77
2021/04/19 02:05:01;;;;;;;1.80;1.00;;;;;;;;;;5090365;28;20027;-77
2021/04/19 02:07:42;;;;;;;1.80;1.27;;;;;;;;;;5089281;28;20024;-76
2021/04/19 02:10:11;;;;;;;1.05;0.98;;;;;;;;;;5090604;28;20036;-77
2021/04/19 02:12:37;;;;;;;0.85;0.80;;;;;;;;;;5088439;28;20028;-77
2021/04/19 02:15:12;;;;;;;0.90;0.90;;;;;;;;;;5072020;28;20547;-77
2021/04/19 02:17:46;;;;;;;1.35;1.23;;;;;;;;;;5090102;28;20051;-77
2021/04/19 02:20:15;;;;;;;1.35;1.13;;;;;;;;;;5090045;28;20099;-76
2021/04/19 02:22:44;;;;;;;5.78;2.15;;;;;;;;;;5088501;28;20032;-77
2021/04/19 02:25:15;;;;;;;1.80;1.23;;;;;;;;;;5089974;28;20024;-77
2021/04/19 02:27:45;;;;;;;2.55;1.80;;;;;;;;;;5090192;28;20024;-77
2021/04/19 02:30:13;;;;;;;0.73;0.73;;;;;;;;;;5089960;28;20111;-77
2021/04/19 02:32:40;;;;;;;0.93;0.93;;;;;;;;;;5089102;28;20368;-77
2021/04/19 02:35:09;;;;;;;1.38;1.25;;;;;;;;;;5090151;28;20040;-77
2021/04/19 02:37:36;;;;;;;0.90;0.90;;;;;;;;;;5087791;28;20024;-76
2021/04/19 02:40:03;;;;;;;1.25;1.25;;;;;;;;;;5089415;28;20048;-77
2021/04/19 02:42:30;;;;;;;1.75;1.17;;;;;;;;;;5088028;28;20035;-76
2021/04/19 02:44:57;;;;;;;1.08;0.98;;;;;;;;;;5089872;28;20027;-76
2021/04/19 02:47:23;;;;;;;1.10;0.70;;;;;;;;;;5089202;28;20028;-76
2021/04/19 02:49:49;;;;;;;1.40;0.95;;;;;;;;;;5090039;28;20020;-76
2021/04/19 02:52:16;;;;;;;1.13;0.90;;;;;;;;;;5087914;28;20089;-75
2021/04/19 02:54:43;;;;;;;1.15;1.13;;;;;;;;;;5089762;28;20442;-76
2021/04/19 02:57:16;;;;;;;1.60;1.40;;;;;;;;;;5089498;28;20032;-76
2021/04/19 02:59:44;;;;;;;1.42;1.10;;;;;;;;;;5089494;28;20453;-77
2021/04/19 03:02:10;;;;;;;1.23;1.13;;;;;;;;;;5088468;28;20344;-76
2021/04/19 03:04:37;;;;;;;1.23;1.13;;;;;;;;;;5088548;28;20090;-76
2021/04/19 03:07:07;;;;;;;1.10;1.00;;;;;;;;;;5088200;28;20146;-76
2021/04/19 03:09:35;;;;;;;1.20;0.80;;;;;;;;;;5088711;28;20031;-76
2021/04/19 03:12:02;;;;;;;2.03;1.40;;;;;;;;;;5087979;28;20412;-76
2021/04/19 03:14:31;;;;;;;1.00;0.90;;;;;;;;;;5088104;28;20113;-76
2021/04/19 03:17:02;;;;;;;0.82;0.80;;;;;;;;;;5089633;28;20368;-76
2021/04/19 03:19:29;;;;;;;2.05;1.00;;;;;;;;;;5088385;28;20038;-77
2021/04/19 03:21:56;;;;;;;1.10;1.10;;;;;;;;;;5088282;28;20028;-76
2021/04/19 03:24:22;;;;;;;1.10;1.00;;;;;;;;;;5087595;28;20024;-76
2021/04/19 03:26:49;;;;;;;1.45;1.05;;;;;;;;;;5088426;28;20303;-76
2021/04/19 03:29:15;;;;;;;1.23;0.88;;;;;;;;;;5088813;28;20035;-76
2021/04/19 03:31:43;;;;;;;0.90;0.90;;;;;;;;;;5087949;28;20035;-76
2021/04/19 03:34:12;;;;;;;0.68;0.65;;;;;;;;;;5087131;28;20426;-76
2021/04/19 03:36:39;;;;;;;0.73;0.73;;;;;;;;;;5087980;28;20470;-77
2021/04/19 03:39:06;;;;;;;1.33;1.13;;;;;;;;;;5087039;28;20431;-76
2021/04/19 03:41:36;;;;;;;1.85;1.50;;;;;;;;;;5087092;28;20058;-76
2021/04/19 03:44:02;;;;;;;1.95;1.25;;;;;;;;;;5087821;28;20097;-76
2021/04/19 03:46:31;;;;;;;1.10;0.95;;;;;;;;;;5088797;28;20032;-76
2021/04/19 03:48:59;;;;;;;0.85;0.85;;;;;;;;;;5088906;28;20073;-77
2021/04/19 03:51:26;;;;;;;2.15;1.40;;;;;;;;;;5087608;28;20096;-76
2021/04/19 03:53:53;;;;;;;0.75;0.68;;;;;;;;;;5087956;28;20101;-76
2021/04/19 03:56:20;;;;;;;0.82;0.82;;;;;;;;;;5087759;28;20032;-76
2021/04/19 03:58:47;;;;;;;0.90;0.90;;;;;;;;;;5087652;28;20047;-76
2021/04/19 04:01:14;;;;;;;1.48;1.38;;;;;;;;;;5087338;28;20030;-75
2021/04/19 04:03:40;;;;;;;1.58;1.10;;;;;;;;;;5086876;28;20102;-76
2021/04/19 04:06:08;;;;;;;1.52;0.95;;;;;;;;;;5087645;28;20438;-76
2021/04/19 04:08:35;;;;;;;1.27;1.17;;;;;;;;;;5087202;28;20028;-76
2021/04/19 04:11:02;;;;;;;1.40;0.93;;;;;;;;;;5087596;28;20024;-76
2021/04/19 04:13:29;;;;;;;2.03;0.93;;;;;;;;;;5086376;28;20035;-76
2021/04/19 04:15:56;;;;;;;1.08;1.08;;;;;;;;;;5088247;28;20256;-76
2021/04/19 04:18:23;;;;;;;1.25;1.15;;;;;;;;;;5087092;28;20016;-76
2021/04/19 04:20:49;;;;;;;1.00;0.90;;;;;;;;;;5088240;28;20024;-77
2021/04/19 04:23:16;;;;;;;1.30;0.80;;;;;;;;;;5087160;28;20502;-76
2021/04/19 04:25:42;;;;;;;1.02;1.02;;;;;;;;;;5087449;28;20028;-76
2021/04/19 04:28:09;;;;;;;1.48;1.35;;;;;;;;;;5087801;28;20111;-77
2021/04/19 04:30:35;;;;;;;1.38;1.17;;;;;;;;;;5087440;28;20036;-76
2021/04/19 04:33:05;;;;;;;1.20;1.10;;;;;;;;;;5086778;28;20529;-77
2021/04/19 04:35:31;;;;;;;1.17;1.08;;;;;;;;;;5086798;28;20040;-76
2021/04/19 04:37:58;;;;;;;1.00;0.90;;;;;;;;;;5086827;28;20016;-76
2021/04/19 04:40:27;;;;;;;0.80;0.80;;;;;;;;;;5086734;28;20043;-76
2021/04/19 04:42:55;;;;;;;0.85;0.80;;;;;;;;;;5086896;28;20368;-76
2021/04/19 04:45:21;;;;;;;1.10;1.00;;;;;;;;;;5086786;28;20483;-76
2021/04/19 04:47:53;;;;;;;1.00;1.00;;;;;;;;;;5088007;28;20035;-76
2021/04/19 04:50:24;;;;;;;0.75;0.75;;;;;;;;;;5067059;28;20032;-76
2021/04/19 04:52:54;;;;;;;1.75;1.25;;;;;;;;;;5066911;28;20037;-76
2021/04/19 04:55:20;;;;;;;1.48;1.10;;;;;;;;;;5066942;28;20037;-76
2021/04/19 04:57:47;;;;;;;1.15;1.05;;;;;;;;;;5067296;28;20028;-76
2021/04/19 05:00:14;;;;;;;1.10;0.70;;;;;;;;;;5066644;28;20298;-75
2021/04/19 05:02:41;;;;;;;0.50;0.50;;;;;;;;;;5065953;28;20111;-76
2021/04/19 05:05:09;;;;;;;1.25;1.25;;;;;;;;;;5067008;28;20082;-76
2021/04/19 05:07:36;;;;;;;1.08;0.98;;;;;;;;;;5065485;28;20028;-76
2021/04/19 05:10:03;;;;;;;1.13;1.00;;;;;;;;;;5067502;28;20415;-76
2021/04/19 05:12:31;;;;;;;0.80;0.80;;;;;;;;;;5065488;28;20029;-76
2021/04/19 05:15:00;;;;;;;1.88;1.13;;;;;;;;;;5066742;28;20032;-76
2021/04/19 05:17:27;;;;;;;2.47;1.10;;;;;;;;;;5066453;28;20626;-76
2021/04/19 05:19:53;;;;;;;1.35;1.10;;;;;;;;;;5067209;28;20111;-76
2021/04/19 05:22:19;;;;;;;0.98;0.90;;;;;;;;;;5065593;28;20025;-76
2021/04/19 05:24:46;;;;;;;0.75;0.75;;;;;;;;;;5066643;28;20511;-76
2021/04/19 05:27:12;;;;;;;1.02;0.80;;;;;;;;;;5066867;28;20028;-75
2021/04/19 05:29:39;;;;;;;2.17;1.52;;;;;;;;;;5066320;28;20037;-76
2021/04/19 05:32:07;;;;;;;1.10;1.00;;;;;;;;;;5066038;28;20043;-76
2021/04/19 05:34:33;;;;;;;3.88;0.88;;;;;;;;;;5066359;28;20040;-76
2021/04/19 05:37:00;;;;;;;1.58;0.93;;;;;;;;;;5066301;28;20048;-76
2021/04/19 05:39:26;;;;;;;1.30;0.80;;;;;;;;;;5076186;28;20459;-76
2021/04/19 05:41:52;;;;;;;1.38;0.90;;;;;;;;;;5086014;28;20020;-76
2021/04/19 05:44:19;;;;;;;1.15;1.00;;;;;;;;;;5085963;28;20023;-76
2021/04/19 05:46:45;;;;;;;1.35;1.17;;;;;;;;;;5086938;28;20421;-76
2021/04/19 05:49:11;;;;;;;0.80;0.80;;;;;;;;;;5086872;28;20032;-76
2021/04/19 05:51:42;;;;;;;1.42;0.75;;;;;;;;;;5081727;28;20088;-77
2021/04/19 05:54:08;;;;;;;1.88;1.00;;;;;;;;;;5085809;28;20040;-77
2021/04/19 05:56:42;;;;;;;2.22;1.10;;;;;;;;;;5087001;28;20039;-76
2021/04/19 05:59:08;;;;;;;2.90;1.67;;;;;;;;;;5090251;28;20032;-76
2021/04/19 06:01:38;;;;;;;0.73;0.73;;;;;;;;;;5088517;28;20177;-76
2021/04/19 06:04:07;;;;;;;1.55;1.45;;;;;;;;;;5089894;28;20107;-76
2021/04/19 06:06:33;;;;;;;2.10;1.40;;;;;;;;;;5087714;28;20058;-76
2021/04/19 06:08:59;;;;;;;3.08;1.33;;;;;;;;;;5088547;28;20024;-76
2021/04/19 06:11:39;;;;;;;1.30;1.20;;;;;;;;;;5087989;28;20020;-76
2021/04/19 06:14:05;;;;;;;4.05;2.25;;;;;;;;;;5088620;28;20036;-77
2021/04/19 06:16:32;;;;;;;1.50;1.40;;;;;;;;;;5080962;28;20036;-75
2021/04/19 06:18:59;;;;;;;2.00;1.70;;;;;;;;;;5084285;28;20035;-75
2021/04/19 06:21:25;;;;;;;4.03;2.00;;;;;;;;;;5086876;28;20088;-76
2021/04/19 06:23:51;;;;;;;3.35;3.03;;;;;;;;;;5086884;28;20036;-76
2021/04/19 06:26:17;;;;;;;3.13;2.83;;;;;;;;;;5079425;28;20043;-76
2021/04/19 06:28:49;;;;;;;3.75;2.00;;;;;;;;;;5078065;28;20032;-79
2021/04/19 06:31:17;;;;;;;3.40;2.80;;;;;;;;;;5097810;28;20215;-77
2021/04/19 06:33:54;;;;;;;4.18;2.80;;;;;;;;;;5103151;28;20041;-78
2021/04/19 06:36:20;;;;;;;3.55;3.15;;;;;;;;;;5071033;28;20029;-77
2021/04/19 06:38:46;;;;;;;2.40;1.90;;;;;;;;;;5066297;28;20377;-78
2021/04/19 06:41:12;;;;;;;2.28;1.88;;;;;;;;;;5068857;28;20133;-75
2021/04/19 06:43:38;;;;;;;2.53;1.73;;;;;;;;;;5067133;28;20033;-76
2021/04/19 06:46:04;;;;;;;2.17;2.05;;;;;;;;;;5061925;28;20056;-76
2021/04/19 06:48:30;;;;;;;3.08;2.47;;;;;;;;;;5057772;28;20032;-75
2021/04/19 06:50:56;;;;;;;5.03;3.25;;;;;;;;;;5043093;28;20456;-78
2021/04/19 06:53:23;;;;;;;3.42;3.05;;;;;;;;;;5062459;28;20032;-75
2021/04/19 06:55:49;;;;;;;4.65;2.97;;;;;;;;;;5063620;28;20037;-76
2021/04/19 06:58:16;;;;;;;3.35;2.92;;;;;;;;;;5061739;28;20498;-77
2021/04/19 07:00:43;;;;;;;3.97;3.05;;;;;;;;;;5063399;28;20101;-78
2021/04/19 07:03:10;;;;;;;5.35;2.75;;;;;;;;;;5063957;28;20478;-80
2021/04/19 07:05:37;;;;;;;3.22;3.03;;;;;;;;;;5061498;28;20094;-77
2021/04/19 07:08:22;;;;;;;3.30;3.00;;;;;;;;;;5061350;28;20040;-76
2021/04/19 07:10:50;;;;;;;5.30;3.95;;;;;;;;;;5064364;28;20060;-75
2021/04/19 07:13:17;;;;;;;5.60;3.85;;;;;;;;;;5061411;28;20137;-75
2021/04/19 07:15:47;;;;;;;4.80;3.42;;;;;;;;;;5063799;28;20155;-75
2021/04/19 07:18:13;;;;;;;3.63;3.17;;;;;;;;;;5061902;28;20040;-75
2021/04/19 07:20:42;;;;;;;4.20;3.60;;;;;;;;;;5061276;28;20028;-75
2021/04/19 07:23:08;;;;;;;3.08;2.47;;;;;;;;;;5062574;28;20025;-75
2021/04/19 07:25:34;;;;;;;3.15;2.85;;;;;;;;;;5058303;28;20037;-76
2021/04/19 07:28:06;;;;;;;4.97;2.97;;;;;;;;;;5060397;28;20028;-75
2021/04/19 07:30:32;;;;;;;5.30;3.70;;;;;;;;;;5060672;28;20365;-78
2021/04/19 07:33:00;;;;;;;5.05;3.05;;;;;;;;;;5059202;28;20032;-78
2021/04/19 07:35:30;;;;;;;6.53;3.38;;;;;;;;;;5060930;28;20130;-76
2021/04/19 07:38:07;;;;;;;5.32;3.85;;;;;;;;;;5058977;28;20105;-76
2021/04/19 07:40:40;;;;;;;4.28;3.45;;;;;;;;;;5098090;28;20063;-80
2021/04/19 07:43:13;;;;;;;3.05;2.78;;;;;;;;;;5093302;28;20032;-76
2021/04/19 07:45:40;;;;;;;3.90;3.60;;;;;;;;;;5092434;28;20047;-76
2021/04/19 07:48:24;;;;;;;5.43;3.40;;;;;;;;;;5095242;28;20039;-76
2021/04/19 07:50:50;;;;;;;3.53;2.20;;;;;;;;;;5064517;28;20031;-72
2021/04/19 07:53:18;;;;;;;3.20;2.10;;;;;;;;;;5102676;28;20297;-72
2021/04/19 07:55:44;;;;;;;4.07;2.80;;;;;;;;;;5100532;28;20054;-72
2021/04/19 07:58:22;;;;;;;2.97;1.90;;;;;;;;;;5097863;28;20065;-72
2021/04/19 08:00:48;;;;;;;4.93;2.67;;;;;;;;;;5095987;28;20038;-72
2021/04/19 08:03:20;;;;;;;3.63;2.58;;;;;;;;;;5088733;28;20042;-72
2021/04/19 08:05:53;;;;;;;2.67;2.15;;;;;;;;;;5086690;28;20141;-72
2021/04/19 08:08:30;;;;;;;3.72;2.30;;;;;;;;;;5089011;28;20447;-69
2021/04/19 08:11:09;;;;;;;4.78;2.90;;;;;;;;;;5087813;28;20046;-74
2021/04/19 08:13:36;;;;;;;2.85;2.38;;;;;;;;;;5097754;28;20709;-74
2021/04/19 08:16:16;;;;;;;2.92;2.13;;;;;;;;;;5091233;28;20039;-73
2021/04/19 08:18:42;;;;;;;6.60;2.83;;;;;;;;;;5092443;28;20116;-73
2021/04/19 08:21:08;;;;;;;1.83;1.73;;;;;;;;;;5093184;28;20058;-73
2021/04/19 08:23:38;;;;;;;4.57;1.88;;;;;;;;;;5093178;28;20019;-72
2021/04/19 08:26:06;;;;;;;1.90;1.60;;;;;;;;;;5086642;28;20548;-73
2021/04/19 08:28:41;;;;;;;4.82;2.15;;;;;;;;;;5080534;28;20039;-72
2021/04/19 08:31:07;;;;;;;2.58;1.88;;;;;;;;;;5085885;28;20152;-73
2021/04/19 08:33:34;;;;;;;2.58;2.03;;;;;;;;;;5087283;28;20032;-72
2021/04/19 08:36:01;;;;;;;2.05;1.95;;;;;;;;;;5087961;28;20091;-71
2021/04/19 08:38:27;;;;;;;2.72;2.35;;;;;;;;;;5085482;28;20027;-72
2021/04/19 08:40:53;;;;;;;2.42;1.58;;;;;;;;;;5089521;28;20024;-72
2021/04/19 08:43:21;;;;;;;2.20;1.90;;;;;;;;;;5086669;28;20893;-74
2021/04/19 08:45:48;;;;;;;3.83;2.22;;;;;;;;;;5092173;28;20031;-72
2021/04/19 08:48:14;;;;;;;2.83;1.95;;;;;;;;;;5085999;28;20035;-72
2021/04/19 08:50:42;;;;;;;2.30;2.08;;;;;;;;;;5090383;28;20032;-72
2021/04/19 08:53:10;;;;;;;6.32;2.22;;;;;;;;;;5091193;28;20030;-69
2021/04/19 08:55:36;;;;;;;3.08;2.72;;;;;;;;;;5100731;28;20040;-68
2021/04/19 08:58:08;;;;;;;5.68;2.88;;;;;;;;;;5097298;28;20052;-68
2021/04/19 09:00:35;;;;;;;4.53;3.50;;;;;;;;;;5090097;28;20043;-68
2021/04/19 09:03:01;;;;;;;1.95;1.85;;;;;;;;;;5083183;28;20024;-68
2021/04/19 09:05:28;;;;;;;5.45;3.13;;;;;;;;;;5099541;28;20023;-68
2021/04/19 09:08:07;;;;;;;2.85;2.65;;;;;;;;;;5095375;28;20035;-68
2021/04/19 09:10:53;;;;;;;6.30;2.47;;;;;;;;;;5101503;28;20051;-68
2021/04/19 09:13:34;;;;;;;3.20;2.13;;;;;;;;;;5083442;28;20032;-68
2021/04/19 09:16:14;;;;;;;3.05;2.25;;;;;;;;;;5086597;28;20052;-68
2021/04/19 09:18:40;;;;;;;3.63;2.40;;;;;;;;;;5096200;28;20450;-68
2021/04/19 09:21:07;;;;;;;6.03;2.95;;;;;;;;;;5090605;28;20023;-68
2021/04/19 09:23:35;;;;;;;3.03;2.58;;;;;;;;;;5083202;28;20028;-68
2021/04/19 09:26:02;;;;;;;2.00;1.75;;;;;;;;;;5099806;28;20413;-68
2021/04/19 09:28:40;;;;;;;2.83;1.63;;;;;;;;;;5087184;28;20043;-68
2021/04/19 09:31:07;;;;;;;2.90;2.40;;;;;;;;;;5097084;28;20553;-68
2021/04/19 09:33:33;;;;;;;3.13;1.77;;;;;;;;;;5094024;28;20036;-68
2021/04/19 09:35:59;;;;;;;2.28;1.60;;;;;;;;;;5087405;28;20064;-68
2021/04/19 09:38:31;;;;;;;4.20;1.77;;;;;;;;;;5087390;28;20532;-67
2021/04/19 09:40:59;;;;;;;4.30;2.33;;;;;;;;;;5089026;28;20032;-68
2021/04/19 09:43:34;;;;;;;7.78;2.55;;;;;;;;;;5094925;28;20088;-68
2021/04/19 09:46:04;;;;;;;2.45;1.92;;;;;;;;;;5092705;28;20031;-68
2021/04/19 09:48:31;;;;;;;4.28;1.90;;;;;;;;;;5087651;28;20382;-68
2021/04/19 09:50:57;;;;;;;6.90;2.33;;;;;;;;;;5098704;28;20104;-68
2021/04/19 09:53:24;;;;;;;5.68;2.80;;;;;;;;;;5096737;28;20035;-68
2021/04/19 09:55:51;;;;;;;5.07;2.40;;;;;;;;;;5103692;28;20049;-68
2021/04/19 09:58:18;;;;;;;4.38;1.70;;;;;;;;;;5090902;28;20039;-67
2021/04/19 10:00:44;;;;;;;4.38;2.47;;;;;;;;;;5097552;28;20049;-68
2021/04/19 10:03:11;;;;;;;3.83;2.92;;;;;;;;;;5093876;28;20169;-67
2021/04/19 10:05:38;;;;;;;2.67;1.42;;;;;;;;;;5092359;28;20032;-68
2021/04/19 10:08:05;;;;;;;6.25;2.47;;;;;;;;;;5088361;28;20448;-76
2021/04/19 10:10:31;;;;;;;3.70;1.77;;;;;;;;;;5099083;28;20015;-76
2021/04/19 10:12:57;;;;;;;3.00;2.10;;;;;;;;;;5092601;28;20051;-79
2021/04/19 10:15:24;;;;;;;4.90;2.30;;;;;;;;;;5071803;28;20460;-81
2021/04/19 10:17:50;;;;;;;3.50;1.83;;;;;;;;;;5097300;28;20093;-71
2021/04/19 10:20:19;;;;;;;2.30;1.67;;;;;;;;;;5090454;28;20036;-73
2021/04/19 10:22:46;;;;;;;4.22;1.85;;;;;;;;;;5088541;28;20096;-74
2021/04/19 10:25:13;;;;;;;3.10;2.22;;;;;;;;;;5096172;28;20554;-74
2021/04/19 10:27:40;;;;;;;1.23;1.10;;;;;;;;;;5086918;28;20040;-75
2021/04/19 10:30:13;;;;;;;2.67;2.40;;;;;;;;;;5091685;28;20482;-77
2021/04/19 10:32:39;;;;;;;;;;;;;;;;;;5096871;28;20505;-78
2021/04/19 10:35:25;;;;;;;2.80;1.98;;;;;;;;;;5098638;28;19920;-75
2021/04/19 10:37:51;;;;;;;2.95;2.45;;;;;;;;;;5094491;28;21623;-76
2021/04/19 10:40:17;;;;;;;2.05;1.73;;;;;;;;;;5093282;28;20051;-76
2021/04/19 10:42:43;;;;;;;3.17;1.33;;;;;;;;;;5097542;28;20031;-76
2021/04/19 10:45:10;;;;;;;1.48;1.38;;;;;;;;;;5097070;28;20474;-76
2021/04/19 10:47:36;;;;;;;2.55;2.08;;;;;;;;;;5094341;28;20456;-73
2021/04/19 10:50:02;;;;;;;4.68;1.85;;;;;;;;;;5097166;28;20032;-73
2021/04/19 10:52:28;;;;;;;10.18;1.83;;;;;;;;;;5093664;28;20019;-73
2021/04/19 10:54:54;;;;;;;1.60;1.48;;;;;;;;;;5095617;28;20036;-73
2021/04/19 10:57:24;;;;;;;2.53;1.00;;;;;;;;;;5094377;28;20175;-73
2021/04/19 10:59:52;;;;;;;4.18;1.60;;;;;;;;;;5094976;28;20094;-80
2021/04/19 11:02:22;;;;;;;2.13;1.60;;;;;;;;;;5095930;28;20024;-79
2021/04/19 11:04:48;;;;;;;1.67;1.52;;;;;;;;;;5091494;28;20035;-80
2021/04/19 11:07:31;;;;;;;2.22;1.88;;;;;;;;;;5097508;28;20035;-78
2021/04/19 11:10:16;;;;;;;1.35;1.27;;;;;;;;;;5096673;28;20028;-79
2021/04/19 11:12:57;;;;;;;1.75;1.65;;;;;;;;;;5098151;28;20027;-80
2021/04/19 11:15:31;;;;;;;1.25;1.15;;;;;;;;;;5091228;28;20040;-79
2021/04/19 11:17:57;;;;;;;1.42;1.33;;;;;;;;;;5097984;28;20077;-79
2021/04/19 11:20:23;;;;;;;1.98;1.45;;;;;;;;;;5093154;28;20498;-79
2021/04/19 11:22:49;;;;;;;2.55;1.48;;;;;;;;;;5086342;28;20043;-80
2021/04/19 11:25:18;;;;;;;1.42;1.20;;;;;;;;;;5091674;28;20063;-79
2021/04/19 11:27:45;;;;;;;2.13;1.42;;;;;;;;;;5087953;28;20032;-79
2021/04/19 11:30:23;;;;;;;1.98;1.60;;;;;;;;;;5098672;28;20038;-76
2021/04/19 11:33:00;;;;;;;1.85;1.63;;;;;;;;;;5091115;28;20386;-75
2021/04/19 11:35:27;;;;;;;3.40;1.83;;;;;;;;;;5090811;28;20032;-75
2021/04/19 11:38:00;;;;;;;2.25;1.92;;;;;;;;;;5089156;28;20028;-72
2021/04/19 11:40:28;;;;;;;4.55;2.10;;;;;;;;;;5080319;28;20048;-74
2021/04/19 11:42:55;;;;;;;2.92;1.23;;;;;;;;;;5079458;28;20052;-79
2021/04/19 11:45:25;;;;;;;1.50;1.40;;;;;;;;;;5078465;28;20082;-74
2021/04/19 11:47:51;;;;;;;2.15;1.42;;;;;;;;;;5078033;28;20028;-76
2021/04/19 11:50:17;;;;;;;2.90;2.03;;;;;;;;;;5078638;28;20047;-76
2021/04/19 11:52:47;;;;;;;3.38;1.40;;;;;;;;;;5080446;28;20096;-75
2021/04/19 11:55:14;;;;;;;2.08;1.35;;;;;;;;;;5076054;28;20047;-73
2021/04/19 11:57:41;;;;;;;4.93;2.40;;;;;;;;;;5077866;28;20024;-75
2021/04/19 12:00:08;;;;;;;1.65;1.35;;;;;;;;;;5078844;28;20024;-75
2021/04/19 12:02:36;;;;;;;1.25;1.15;;;;;;;;;;5076113;28;20024;-77
2021/04/19 12:05:03;;;;;;;2.95;2.08;;;;;;;;;;5074342;28;20096;-75
2021/04/19 12:07:29;;;;;;;4.00;1.48;;;;;;;;;;5073581;28;20028;-77
2021/04/19 12:09:55;;;;;;;6.63;2.03;;;;;;;;;;5067768;28;20108;-71
2021/04/19 12:12:21;;;;;;;2.10;1.50;;;;;;;;;;5053902;28;20042;-74
2021/04/19 12:14:47;;;;;;;1.73;1.63;;;;;;;;;;5070193;28;20047;-76
2021/04/19 12:17:13;;;;;;;1.30;1.10;;;;;;;;;;5075769;28;20093;-79
2021/04/19 12:19:39;;;;;;;4.55;1.50;;;;;;;;;;5075151;28;20095;-73
2021/04/19 12:22:07;;;;;;;1.80;1.30;;;;;;;;;;5078646;28;20025;-77
2021/04/19 12:24:33;;;;;;;2.88;1.20;;;;;;;;;;5077697;28;20024;-74
2021/04/19 12:26:59;;;;;;;2.63;1.60;;;;;;;;;;5076977;28;20031;-75
2021/04/19 12:29:25;;;;;;;2.80;1.30;;;;;;;;;;5078523;28;20492;-75
2021/04/19 12:31:51;;;;;;;1.85;1.30;;;;;;;;;;5079035;28;20206;-75
2021/04/19 12:34:17;;;;;;;1.38;1.27;;;;;;;;;;5079402;28;20043;-77
2021/04/19 12:36:43;;;;;;;4.70;1.73;;;;;;;;;;5077866;28;20027;-78
2021/04/19 12:39:09;;;;;;;2.22;1.40;;;;;;;;;;5076856;28;20059;-77
2021/04/19 12:41:35;;;;;;;6.22;2.38;;;;;;;;;;5075980;28;20436;-78
2021/04/19 12:44:02;;;;;;;1.80;1.48;;;;;;;;;;5077960;28;20043;-74
2021/04/19 12:46:28;;;;;;;5.03;1.52;;;;;;;;;;5076663;28;20040;-76
2021/04/19 12:48:55;;;;;;;9.23;1.83;;;;;;;;;;5080714;28;20097;-74
2021/04/19 12:51:24;;;;;;;3.13;1.50;;;;;;;;;;5080275;28;20107;-76
2021/04/19 12:53:50;;;;;;;3.78;2.05;;;;;;;;;;5080933;28;20111;-72
2021/04/19 12:56:17;;;;;;;3.17;1.85;;;;;;;;;;5079716;28;20054;-73
2021/04/19 12:58:43;;;;;;;2.05;1.60;;;;;;;;;;5079574;28;20117;-73
2021/04/19 13:01:09;;;;;;;2.83;1.20;;;;;;;;;;5079779;28;20026;-73
2021/04/19 13:03:36;;;;;;;2.17;1.25;;;;;;;;;;5080579;28;20036;-71
2021/04/19 13:06:02;;;;;;;4.75;1.73;;;;;;;;;;5084089;28;20028;-71
2021/04/19 13:08:28;;;;;;;10.05;2.33;;;;;;;;;;5083295;28;20085;-71
2021/04/19 13:10:54;;;;;;;1.58;1.48;;;;;;;;;;5086473;28;20024;-71
2021/04/19 13:13:21;;;;;;;1.27;0.93;;;;;;;;;;5082276;28;20036;-71
2021/04/19 13:15:47;;;;;;;2.85;1.33;;;;;;;;;;5085649;28;20040;-71
2021/04/19 13:18:13;;;;;;;5.50;1.88;;;;;;;;;;5081812;28;20475;-71
2021/04/19 13:20:39;;;;;;;3.25;1.52;;;;;;;;;;5085505;28;20030;-74
2021/04/19 13:23:05;;;;;;;3.60;1.50;;;;;;;;;;5086018;28;20202;-69
2021/04/19 13:25:32;;;;;;;3.53;2.03;;;;;;;;;;5084124;28;20093;-71
2021/04/19 13:27:58;;;;;;;6.32;1.90;;;;;;;;;;5076103;28;20039;-71
2021/04/19 13:30:25;;;;;;;2.63;1.48;;;;;;;;;;5080155;28;20122;-73
2021/04/19 13:32:52;;;;;;;5.78;1.30;;;;;;;;;;5076948;28;20037;-73
2021/04/19 13:35:18;;;;;;;3.28;1.80;;;;;;;;;;5080321;28;20072;-72
2021/04/19 13:37:45;;;;;;;4.15;1.80;;;;;;;;;;5075814;28;20093;-72
2021/04/19 13:40:12;;;;;;;2.88;2.38;;;;;;;;;;5090813;28;20056;-76
2021/04/19 13:42:39;;;;;;;3.28;2.33;;;;;;;;;;5081103;28;20036;-74
2021/04/19 13:45:07;;;;;;;4.03;2.28;;;;;;;;;;5079447;28;20028;-73
2021/04/19 13:47:33;;;;;;;3.05;1.88;;;;;;;;;;5086268;28;20910;-73
2021/04/19 13:49:59;;;;;;;4.25;2.63;;;;;;;;;;5101863;28;20024;-73
2021/04/19 13:52:26;;;;;;;1.55;1.45;;;;;;;;;;5097687;28;20046;-76
2021/04/19 13:54:52;;;;;;;3.10;1.58;;;;;;;;;;5081172;28;20040;-76
2021/04/19 13:57:19;;;;;;;2.35;2.10;;;;;;;;;;5081708;28;20039;-75
2021/04/19 13:59:45;;;;;;;3.58;2.03;;;;;;;;;;5092389;28;20482;-76
2021/04/19 14:02:11;;;;;;;2.50;2.30;;;;;;;;;;5080219;28;20028;-75
2021/04/19 14:04:37;;;;;;;3.67;1.48;;;;;;;;;;5089433;28;20564;-71
2021/04/19 14:07:03;;;;;;;2.13;1.92;;;;;;;;;;5088372;28;20023;-75
2021/04/19 14:09:29;;;;;;;8.48;3.28;;;;;;;;;;5083509;28;20024;-75
2021/04/19 14:11:56;;;;;;;3.00;1.50;;;;;;;;;;5094340;28;20046;-74
2021/04/19 14:14:22;;;;;;;2.03;1.77;;;;;;;;;;5085569;28;20024;-74
2021/04/19 14:16:49;;;;;;;7.20;2.33;;;;;;;;;;5091978;28;20554;-76
2021/04/19 14:19:15;;;;;;;3.20;1.67;;;;;;;;;;5080237;28;20578;-72
2021/04/19 14:21:41;;;;;;;3.83;1.20;;;;;;;;;;5095885;28;20036;-70
2021/04/19 14:24:08;;;;;;;2.88;1.85;;;;;;;;;;5087087;28;20103;-71
2021/04/19 14:26:38;;;;;;;3.85;1.48;;;;;;;;;;5094563;28;20035;-75
2021/04/19 14:29:08;;;;;;;6.13;2.00;;;;;;;;;;5087562;28;20035;-75
2021/04/19 14:31:38;;;;;;;3.50;1.95;;;;;;;;;;5092199;28;20403;-75
2021/04/19 14:34:04;;;;;;;4.35;1.95;;;;;;;;;;5093526;28;20032;-76
2021/04/19 14:36:30;;;;;;;2.17;1.73;;;;;;;;;;5086002;28;20044;-76
2021/04/19 14:39:00;;;;;;;4.65;1.85;;;;;;;;;;5097824;28;20056;-77
2021/04/19 14:41:26;;;;;;;3.17;1.83;;;;;;;;;;5078163;28;20397;-77
2021/04/19 14:43:52;;;;;;;1.63;1.30;;;;;;;;;;5083733;28;20044;-77
2021/04/19 14:46:18;;;;;;;2.95;1.67;;;;;;;;;;5091836;28;20023;-77